Time;durP1;ratioP1;P1;durP2;ratioP2;P2;SDS_P1;SDS_P2;PMS_P1;PMS_P2;Temp;Humidity;BMP_temperature;BMP_pressure;BME280_temperature;BME280_humidity;BME280_pressure;Samples;Min_cycle;Max_cycle;Signal;HPM_P1;HPM_P2
2022/04/01 00:02:07;;;;;;;1.20;1.10;;;;;;;16.97;40.46;100468.72;5144281;28;20502;-56
2022/04/01 00:04:32;;;;;;;1.27;1.17;;;;;;;16.95;40.45;100474.25;5143482;28;20589;-56
2022/04/01 00:06:58;;;;;;;1.00;1.00;;;;;;;16.95;40.42;100473.44;5143708;28;20098;-56
2022/04/01 00:09:24;;;;;;;0.90;0.90;;;;;;;16.92;40.55;100477.28;5125643;28;20662;-55
2022/04/01 00:11:49;;;;;;;1.23;1.08;;;;;;;16.93;40.52;100476.25;5144288;28;20036;-57
2022/04/01 00:14:15;;;;;;;1.17;1.00;;;;;;;16.91;40.51;100472.91;5143887;28;20039;-56
2022/04/01 00:16:40;;;;;;;1.30;1.20;;;;;;;16.92;40.47;100488.00;5144021;28;20087;-56
2022/04/01 00:19:05;;;;;;;1.10;1.00;;;;;;;16.90;40.49;100481.13;5143277;28;20086;-56
2022/04/01 00:21:31;;;;;;;1.23;1.13;;;;;;;16.90;40.46;100484.63;5144499;27;20027;-56
2022/04/01 00:23:56;;;;;;;1.17;1.08;;;;;;;16.89;40.47;100490.19;5147754;27;20037;-57
2022/04/01 00:26:21;;;;;;;1.40;1.08;;;;;;;16.89;40.51;100490.19;5147983;27;20034;-57
2022/04/01 00:28:47;;;;;;;1.30;1.20;;;;;;;16.88;40.51;100489.34;5147697;27;20042;-56
2022/04/01 00:31:13;;;;;;;1.10;1.00;;;;;;;16.86;40.44;100485.97;5148040;27;20042;-57
2022/04/01 00:33:38;;;;;;;1.30;1.20;;;;;;;16.86;40.69;100494.03;5147295;27;20023;-55
2022/04/01 00:36:04;;;;;;;1.38;1.27;;;;;;;16.85;40.42;100486.16;5147408;27;20047;-57
2022/04/01 00:38:29;;;;;;;1.00;1.00;;;;;;;16.84;40.49;100501.41;5146819;27;20471;-57
2022/04/01 00:40:54;;;;;;;1.30;1.20;;;;;;;16.83;40.51;100497.06;5147502;27;20034;-57
2022/04/01 00:43:27;;;;;;;1.40;1.30;;;;;;;16.84;40.37;100497.91;5147408;27;20529;-57
2022/04/01 00:45:53;;;;;;;0.95;0.95;;;;;;;16.79;40.35;100494.88;5147262;27;20030;-57
2022/04/01 00:48:19;;;;;;;1.70;1.33;;;;;;;16.80;40.25;100502.75;5147332;27;20023;-56
2022/04/01 00:50:44;;;;;;;1.00;1.00;;;;;;;16.80;40.49;100504.59;5146738;27;20053;-56
2022/04/01 00:53:09;;;;;;;1.20;1.10;;;;;;;16.66;40.46;100490.78;5146883;27;20031;-57
2022/04/01 00:55:36;;;;;;;1.10;1.00;;;;;;;16.78;40.47;100504.78;5147312;27;20027;-57
2022/04/01 00:58:03;;;;;;;1.10;1.00;;;;;;;16.78;40.40;100511.97;5147415;27;20052;-58
2022/04/01 01:00:28;;;;;;;1.40;1.00;;;;;;;16.77;40.49;100513.81;5147032;27;20015;-57
2022/04/01 01:02:54;;;;;;;1.98;1.40;;;;;;;16.76;40.47;100504.09;5125161;28;20023;-52
2022/04/01 01:05:19;;;;;;;1.00;1.00;;;;;;;16.75;40.26;100510.47;5125754;28;20016;-56
2022/04/01 01:07:45;;;;;;;1.17;1.08;;;;;;;16.74;40.50;100511.47;5125899;28;20032;-57
2022/04/01 01:10:11;;;;;;;1.25;1.15;;;;;;;16.73;40.48;100513.28;5107943;28;20039;-57
2022/04/01 01:12:41;;;;;;;1.30;1.20;;;;;;;16.70;40.52;100510.94;5126580;28;20111;-57
2022/04/01 01:15:09;;;;;;;1.13;1.10;;;;;;;16.72;40.44;100516.13;5126188;28;20020;-57
2022/04/01 01:17:34;;;;;;;1.00;1.00;;;;;;;16.71;40.78;100511.75;5126332;28;20058;-57
2022/04/01 01:19:59;;;;;;;1.00;1.00;;;;;;;16.70;40.30;100516.31;5125280;28;20023;-57
2022/04/01 01:22:25;;;;;;;1.42;0.98;;;;;;;16.69;40.41;100520.00;5129145;27;20034;-57
2022/04/01 01:24:50;;;;;;;1.50;1.30;;;;;;;16.68;40.46;100523.66;5136413;27;20027;-57
2022/04/01 01:27:15;;;;;;;1.20;1.10;;;;;;;16.68;40.35;100523.66;5126128;28;20024;-57
2022/04/01 01:29:42;;;;;;;1.15;1.05;;;;;;;16.67;40.40;100516.63;5125960;28;20032;-57
2022/04/01 01:32:11;;;;;;;1.20;1.10;;;;;;;16.66;40.41;100520.31;5126174;28;20031;-57
2022/04/01 01:34:39;;;;;;;1.42;0.90;;;;;;;16.66;40.41;100519.47;5124978;28;20027;-57
2022/04/01 01:37:05;;;;;;;1.08;1.00;;;;;;;16.65;40.52;100515.09;5125722;28;20042;-58
2022/04/01 01:39:31;;;;;;;1.02;0.93;;;;;;;16.63;40.56;100514.44;5107558;28;20032;-57
2022/04/01 01:41:56;;;;;;;1.50;1.20;;;;;;;16.63;40.43;100522.47;5125979;28;20063;-57
2022/04/01 01:44:23;;;;;;;1.23;1.15;;;;;;;16.63;40.52;100527.84;5125714;28;20023;-57
2022/04/01 01:46:49;;;;;;;1.00;1.00;;;;;;;16.59;40.59;100523.81;5125624;28;20114;-56
2022/04/01 01:49:14;;;;;;;1.10;1.00;;;;;;;16.61;40.35;100535.19;5124994;28;20467;-57
2022/04/01 01:54:43;;;;;;;1.02;1.02;;;;;;;16.60;40.32;100542.41;5145714;27;20049;-57
2022/04/01 01:57:09;;;;;;;1.00;1.00;;;;;;;16.59;40.38;100523.81;5127675;27;20469;-56
2022/04/01 01:59:34;;;;;;;0.90;0.90;;;;;;;16.58;40.45;100536.38;5145941;27;20051;-57
2022/04/01 02:02:00;;;;;;;0.95;0.93;;;;;;;16.57;40.50;100531.19;5146053;27;20031;-56
2022/04/01 02:04:26;;;;;;;1.30;1.10;;;;;;;16.56;40.39;100532.16;5144903;27;20075;-54
2022/04/01 02:06:51;;;;;;;0.95;0.95;;;;;;;16.56;40.38;100534.84;5145157;27;20083;-56
2022/04/01 02:09:17;;;;;;;1.10;1.00;;;;;;;16.53;40.43;100529.84;5145629;27;20060;-54
2022/04/01 02:11:43;;;;;;;0.82;0.82;;;;;;;16.54;40.46;100536.88;5145827;27;20470;-56
2022/04/01 02:14:08;;;;;;;1.83;1.35;;;;;;;16.53;40.57;100538.72;5145697;27;20078;-55
2022/04/01 02:16:34;;;;;;;1.00;1.00;;;;;;;16.53;40.40;100545.94;5145760;27;20022;-56
2022/04/01 02:18:59;;;;;;;1.10;1.00;;;;;;;16.52;40.36;100553.13;5144757;27;20057;-56
2022/04/01 02:21:24;;;;;;;1.20;1.10;;;;;;;16.50;40.45;100555.13;5145232;27;20030;-55
2022/04/01 02:23:51;;;;;;;1.05;1.05;;;;;;;16.50;40.38;100558.66;5145053;27;20066;-56
2022/04/01 02:26:16;;;;;;;1.40;1.30;;;;;;;16.51;40.42;100562.19;5145494;27;20027;-56
2022/04/01 02:28:42;;;;;;;1.00;1.00;;;;;;;16.49;40.74;100562.34;5145240;27;20118;-56
2022/04/01 02:31:08;;;;;;;1.00;1.00;;;;;;;16.48;40.42;100560.69;5145621;27;20019;-54
2022/04/01 02:33:35;;;;;;;0.98;0.98;;;;;;;16.48;40.50;100559.81;5145241;27;20034;-55
2022/04/01 02:36:06;;;;;;;1.00;1.00;;;;;;;16.48;40.44;100555.31;5108762;27;20073;-58
2022/04/01 02:38:32;;;;;;;1.05;1.05;;;;;;;16.46;40.42;100572.56;5144862;27;20065;-56
2022/04/01 02:40:58;;;;;;;1.25;1.15;;;;;;;16.46;40.44;100559.16;5145332;27;20022;-57
2022/04/01 02:43:24;;;;;;;1.60;1.10;;;;;;;16.45;40.43;100569.03;5145332;27;20035;-57
2022/04/01 02:45:50;;;;;;;0.95;0.95;;;;;;;16.44;40.45;100570.06;5144611;27;20082;-57
2022/04/01 02:48:16;;;;;;;1.00;1.00;;;;;;;16.44;40.44;100579.94;5145219;27;20053;-55
2022/04/01 02:50:45;;;;;;;1.33;1.23;;;;;;;16.44;40.34;100572.72;5144466;27;20027;-57
2022/04/01 02:53:11;;;;;;;;;;;;;;;16.39;40.53;100580.41;5144940;27;20027;-57
2022/04/01 02:55:37;;;;;;;1.20;1.10;;;;;;;16.39;40.40;100580.41;5145164;27;19979;-58
2022/04/01 02:58:05;;;;;;;1.10;1.10;;;;;;;16.36;40.44;100582.59;5144755;27;20031;-57
2022/04/01 03:00:30;;;;;;;0.98;0.90;;;;;;;16.39;40.69;100585.75;5144630;27;20023;-56
2022/04/01 03:02:56;;;;;;;1.13;1.10;;;;;;;16.39;40.46;100595.66;5144847;27;20029;-59
2022/04/01 03:05:21;;;;;;;1.42;1.20;;;;;;;16.38;40.41;100594.81;5143983;27;20015;-58
2022/04/01 03:07:46;;;;;;;1.08;0.98;;;;;;;16.38;40.46;100602.03;5144294;27;20061;-57
2022/04/01 03:10:12;;;;;;;1.08;1.08;;;;;;;16.38;40.50;100599.34;5144739;27;20031;-58
2022/04/01 03:12:37;;;;;;;1.23;1.15;;;;;;;16.37;40.44;100605.72;5144954;27;20152;-57
2022/04/01 03:15:04;;;;;;;1.23;1.13;;;;;;;16.37;40.42;100611.09;5144714;27;20019;-58
2022/04/01 03:17:33;;;;;;;1.20;1.20;;;;;;;16.35;40.38;100605.88;5126292;27;20019;-57
2022/04/01 03:19:59;;;;;;;1.00;0.90;;;;;;;16.35;40.37;100605.03;5143814;27;20552;-57
2022/04/01 03:22:25;;;;;;;1.08;1.08;;;;;;;16.36;40.30;100612.94;5144199;27;20066;-57
2022/04/01 03:24:51;;;;;;;1.10;1.10;;;;;;;16.29;40.41;100600.31;5144770;27;20216;-56
2022/04/01 03:27:16;;;;;;;0.90;0.90;;;;;;;16.35;40.39;100619.28;5144559;27;20027;-56
2022/04/01 03:29:42;;;;;;;1.00;1.00;;;;;;;16.37;40.32;100627.19;5144102;27;20042;-57
2022/04/01 03:32:07;;;;;;;1.00;1.00;;;;;;;16.37;40.31;100624.50;5144575;27;20023;-57
2022/04/01 03:34:33;;;;;;;1.00;1.00;;;;;;;16.38;40.34;100642.28;5143685;27;20132;-57
2022/04/01 03:36:58;;;;;;;1.27;1.20;;;;;;;16.38;40.41;100632.38;5143889;28;20126;-57
2022/04/01 03:39:25;;;;;;;0.90;0.90;;;;;;;16.39;40.30;100630.53;5144206;28;20518;-57
2022/04/01 03:41:50;;;;;;;1.00;1.00;;;;;;;16.39;40.35;100635.91;5144595;28;20630;-56
2022/04/01 03:44:17;;;;;;;1.25;1.15;;;;;;;16.40;40.27;100629.56;5144306;28;20488;-57
2022/04/01 03:46:49;;;;;;;1.25;1.15;;;;;;;16.42;40.19;100638.28;5137727;28;20030;-56
2022/04/01 03:49:21;;;;;;;1.00;1.00;;;;;;;16.42;40.24;100636.44;5143665;27;20121;-57
2022/04/01 03:51:49;;;;;;;0.95;0.95;;;;;;;16.39;40.13;100642.13;5144013;27;20102;-56
2022/04/01 03:54:15;;;;;;;1.10;1.10;;;;;;;16.43;40.04;100643.47;5144212;28;20030;-57
2022/04/01 03:56:41;;;;;;;1.05;1.05;;;;;;;16.41;40.10;100632.06;5145482;27;20031;-58
2022/04/01 03:59:08;;;;;;;1.55;1.23;;;;;;;16.45;40.04;100636.13;5146977;27;20095;-57
2022/04/01 04:01:37;;;;;;;1.17;1.17;;;;;;;16.47;40.10;100644.00;5148679;27;20063;-57
2022/04/01 04:04:04;;;;;;;1.00;1.00;;;;;;;16.46;40.04;100648.53;5129151;27;20164;-56
2022/04/01 04:06:29;;;;;;;1.30;1.00;;;;;;;16.48;39.99;100651.06;5148117;27;20075;-57
2022/04/01 04:09:01;;;;;;;1.50;1.30;;;;;;;16.50;39.91;100649.06;5147744;27;20045;-58
2022/04/01 04:11:29;;;;;;;1.02;1.02;;;;;;;16.52;39.88;100659.63;5148391;27;20040;-57
2022/04/01 04:13:56;;;;;;;1.30;1.20;;;;;;;16.52;39.87;100655.09;5148089;27;20027;-57
2022/04/01 04:16:30;;;;;;;1.00;1.00;;;;;;;16.55;39.78;100670.06;5148103;27;20023;-57
2022/04/01 04:19:22;;;;;;;1.13;1.02;;;;;;;16.56;39.72;100671.72;5147303;27;20030;-57
2022/04/01 04:22:11;;;;;;;1.02;1.02;;;;;;;16.56;39.80;100664.53;5128415;27;20062;-57
2022/04/01 04:24:41;;;;;;;;;;;;;;;16.54;39.83;100671.06;5142731;27;20592;-57
2022/04/01 04:27:12;;;;;;;1.17;1.13;;;;;;;16.58;39.78;100667.06;5144733;27;19911;-58
2022/04/01 04:29:48;;;;;;;1.20;1.20;;;;;;;16.59;39.64;100676.78;5143486;27;20026;-57
2022/04/01 04:32:28;;;;;;;0.93;0.93;;;;;;;16.61;39.78;100680.13;5135914;27;20106;-57
2022/04/01 04:34:55;;;;;;;1.00;1.00;;;;;;;16.61;39.75;100680.13;5145872;27;20033;-58
2022/04/01 04:37:25;;;;;;;1.02;1.00;;;;;;;16.64;39.74;100686.03;5124140;27;20031;-58
2022/04/01 04:39:50;;;;;;;0.90;0.90;;;;;;;16.64;39.82;100686.03;5095625;27;20384;-57
2022/04/01 04:42:16;;;;;;;1.10;1.00;;;;;;;16.67;39.79;100679.53;5138932;27;20075;-58
2022/04/01 04:44:44;;;;;;;1.13;1.02;;;;;;;16.69;39.69;100693.63;5140574;27;20024;-57
2022/04/01 04:47:11;;;;;;;1.90;1.00;;;;;;;16.71;39.84;100694.31;5135149;27;20083;-58
2022/04/01 04:49:37;;;;;;;1.05;0.98;;;;;;;16.72;39.86;100683.44;5142981;27;20019;-58
2022/04/01 04:52:02;;;;;;;1.20;1.10;;;;;;;16.74;39.85;100692.19;5137864;27;20086;-57
2022/04/01 04:54:28;;;;;;;1.10;1.00;;;;;;;16.72;39.91;100699.53;5144275;27;20030;-58
2022/04/01 04:56:54;;;;;;;0.98;0.93;;;;;;;16.78;39.77;100689.16;5144209;27;20027;-57
2022/04/01 04:59:21;;;;;;;1.02;1.02;;;;;;;16.80;39.94;100695.22;5143366;27;20023;-57
2022/04/01 05:01:55;;;;;;;1.63;1.17;;;;;;;16.84;40.03;100697.44;5142121;27;20019;-58
2022/04/01 05:04:46;;;;;;;1.00;1.00;;;;;;;16.87;40.05;100693.59;5137522;27;20024;-57
2022/04/01 05:07:34;;;;;;;2.20;1.42;;;;;;;16.89;39.90;100697.78;5120363;27;20014;-57
2022/04/01 05:10:07;;;;;;;0.90;0.90;;;;;;;16.93;39.93;100714.44;5116968;27;20046;-57
2022/04/01 05:12:44;;;;;;;0.90;0.90;;;;;;;16.95;39.80;100705.22;5144030;27;20027;-57
2022/04/01 05:15:11;;;;;;;1.02;0.90;;;;;;;16.97;39.91;100711.25;5123277;27;20532;-57
2022/04/01 05:18:12;;;;;;;0.88;0.88;;;;;;;17.01;39.84;100710.94;5138422;27;20084;-58
2022/04/01 05:20:39;;;;;;;0.80;0.80;;;;;;;17.02;39.72;100721.50;5129112;27;20031;-57
2022/04/01 05:23:15;;;;;;;0.90;0.90;;;;;;;17.06;39.83;100730.94;5125926;27;20023;-57
2022/04/01 05:25:54;;;;;;;0.82;0.80;;;;;;;17.08;39.75;100728.09;5135234;27;20046;-57
2022/04/01 05:28:25;;;;;;;1.50;0.90;;;;;;;17.10;39.80;100726.94;5134977;27;20034;-55
2022/04/01 05:31:12;;;;;;;0.93;0.93;;;;;;;17.14;39.62;100744.41;5138502;27;20182;-55
2022/04/01 05:33:48;;;;;;;1.42;1.33;;;;;;;17.15;39.91;100732.66;5123257;27;20023;-55
2022/04/01 05:36:14;;;;;;;1.00;0.90;;;;;;;17.18;39.70;100755.69;5115683;28;20100;-56
2022/04/01 05:38:42;;;;;;;0.85;0.85;;;;;;;17.20;39.68;100761.72;5109628;28;20061;-59
2022/04/01 05:41:08;;;;;;;1.58;0.90;;;;;;;17.19;39.72;100758.19;5117379;28;20034;-59
2022/04/01 05:43:34;;;;;;;0.82;0.80;;;;;;;17.22;39.72;100765.94;5121622;28;20028;-56
2022/04/01 05:46:03;;;;;;;0.95;0.95;;;;;;;17.24;39.60;100766.59;5115039;28;20016;-57
2022/04/01 05:48:28;;;;;;;;;;;;;;;17.22;39.72;100771.31;5123426;28;20023;-59
2022/04/01 05:50:54;;;;;;;1.08;0.98;;;;;;;17.23;39.67;100783.75;5115247;28;20451;-58
2022/04/01 05:53:21;;;;;;;1.88;1.13;;;;;;;17.26;39.64;100779.06;5110753;28;20024;-58
2022/04/01 05:55:47;;;;;;;3.65;1.13;;;;;;;17.27;39.59;100794.16;5121979;28;20468;-59
2022/04/01 05:58:12;;;;;;;1.10;1.00;;;;;;;17.28;39.59;100794.00;5123110;28;20030;-59
2022/04/01 06:01:01;;;;;;;0.85;0.85;;;;;;;17.32;39.47;100789.16;5122829;28;20023;-59
2022/04/01 06:03:26;;;;;;;;;;;;;;;17.29;39.52;100800.22;5119379;28;20027;-60
2022/04/01 06:05:56;;;;;;;0.82;0.80;;;;;;;17.31;39.44;100796.38;5122612;28;19950;-59
2022/04/01 06:08:44;;;;;;;0.98;0.95;;;;;;;17.34;39.60;100808.66;5121549;28;20028;-60
2022/04/01 06:11:22;;;;;;;0.93;0.88;;;;;;;17.34;39.58;100805.97;5121098;28;20137;-58
2022/04/01 06:13:58;;;;;;;1.40;0.85;;;;;;;17.35;39.40;100813.03;5121550;28;20020;-59
2022/04/01 06:16:27;;;;;;;1.15;1.02;;;;;;;17.36;39.38;100812.84;5120169;28;20052;-58
2022/04/01 06:19:06;;;;;;;1.00;0.80;;;;;;;17.39;39.43;100817.06;5121187;28;20027;-58
2022/04/01 06:21:38;;;;;;;0.98;0.82;;;;;;;17.40;39.46;100819.59;5122463;28;20080;-58
2022/04/01 06:24:11;;;;;;;1.02;0.93;;;;;;;17.42;39.28;100822.97;5122417;28;20084;-60
2022/04/01 06:26:40;;;;;;;0.90;0.90;;;;;;;17.43;39.36;100821.13;5122743;28;20061;-58
2022/04/01 06:29:19;;;;;;;1.20;1.02;;;;;;;17.46;39.27;100831.56;5122540;28;20027;-59
2022/04/01 06:31:48;;;;;;;0.80;0.80;;;;;;;17.47;39.30;100830.56;5104224;28;20046;-59
2022/04/01 06:34:15;;;;;;;;;;;;;;;17.45;39.37;100824.47;5120562;28;20096;-59
2022/04/01 06:36:45;;;;;;;0.98;0.90;;;;;;;17.45;39.24;100833.38;5139943;27;19915;-58
2022/04/01 06:39:13;;;;;;;0.98;0.90;;;;;;;17.48;39.39;100837.59;5142228;27;20060;-59
2022/04/01 06:41:43;;;;;;;0.95;0.95;;;;;;;17.47;39.25;100839.47;5141972;27;20041;-58
2022/04/01 06:44:09;;;;;;;0.77;0.77;;;;;;;17.49;39.06;100844.66;5142179;27;20027;-57
2022/04/01 06:46:34;;;;;;;0.80;0.80;;;;;;;17.50;39.20;100846.38;5142587;27;20068;-59
2022/04/01 06:49:00;;;;;;;0.88;0.88;;;;;;;17.52;39.30;100847.03;5141736;27;20118;-57
2022/04/01 06:51:25;;;;;;;0.77;0.70;;;;;;;17.53;39.19;100847.88;5144480;27;20023;-57
2022/04/01 06:53:50;;;;;;;0.77;0.77;;;;;;;17.55;39.01;100853.94;5144199;27;20022;-57
2022/04/01 06:56:15;;;;;;;2.15;1.00;;;;;;;17.56;38.98;100855.63;5145013;27;20734;-57
2022/04/01 06:58:41;;;;;;;1.30;1.20;;;;;;;17.58;38.94;100854.44;5144738;27;20417;-56
2022/04/01 07:01:06;;;;;;;1.00;0.90;;;;;;;17.59;38.83;100866.06;5142139;27;20027;-57
2022/04/01 07:03:33;;;;;;;1.13;0.90;;;;;;;17.59;38.78;100856.16;5128552;27;20027;-57
2022/04/01 07:05:58;;;;;;;0.90;0.80;;;;;;;17.58;38.64;100857.13;5144343;27;20015;-57
2022/04/01 07:08:23;;;;;;;1.20;1.00;;;;;;;17.60;38.69;100857.84;5143856;27;20035;-59
2022/04/01 07:10:49;;;;;;;2.45;1.10;;;;;;;17.62;38.74;100860.34;5126296;27;20061;-59
2022/04/01 07:13:15;;;;;;;1.08;0.98;;;;;;;17.61;38.87;100856.81;5144735;27;20030;-59
2022/04/01 07:15:41;;;;;;;0.80;0.80;;;;;;;17.65;38.41;100857.34;5144690;27;20022;-58
2022/04/01 07:18:07;;;;;;;1.10;0.95;;;;;;;17.66;38.56;100867.09;5144328;27;20055;-59
2022/04/01 07:20:32;;;;;;;2.65;1.10;;;;;;;17.64;38.48;100861.88;5144063;27;20079;-57
2022/04/01 07:22:57;;;;;;;0.90;0.90;;;;;;;17.68;38.61;100863.25;5144159;27;20023;-48
2022/04/01 07:25:23;;;;;;;0.98;0.90;;;;;;;17.68;38.57;100865.94;5144639;27;20023;-58
2022/04/01 07:27:50;;;;;;;2.65;0.80;;;;;;;17.72;38.52;100867.31;5144190;27;20102;-58
2022/04/01 07:30:15;;;;;;;0.95;0.85;;;;;;;17.75;38.76;100871.53;5143844;27;20084;-58
2022/04/01 07:32:40;;;;;;;1.30;0.90;;;;;;;17.76;38.52;100878.63;5144406;27;20030;-57
2022/04/01 07:35:13;;;;;;;1.63;0.90;;;;;;;17.79;38.43;100875.56;5143226;27;20042;-58
2022/04/01 07:37:39;;;;;;;1.20;1.08;;;;;;;17.79;38.61;100883.66;5144027;28;20042;-58
2022/04/01 07:40:05;;;;;;;2.95;0.90;;;;;;;17.82;38.38;100885.19;5144498;28;20023;-58
2022/04/01 07:42:30;;;;;;;2.33;1.00;;;;;;;17.83;38.44;100882.31;5143997;28;20038;-59
2022/04/01 07:44:56;;;;;;;0.98;0.88;;;;;;;17.86;38.43;100887.38;5134950;28;20291;-58
2022/04/01 07:47:22;;;;;;;1.77;1.02;;;;;;;17.87;38.32;100888.22;5141094;28;20035;-57
2022/04/01 07:49:48;;;;;;;1.17;1.00;;;;;;;17.87;38.48;100897.13;5141328;28;20020;-59
2022/04/01 07:52:15;;;;;;;0.80;0.80;;;;;;;17.89;38.24;100887.06;5141300;28;20446;-58
2022/04/01 07:54:42;;;;;;;0.82;0.80;;;;;;;17.90;38.42;100898.66;5141392;28;20023;-59
2022/04/01 07:57:09;;;;;;;0.80;0.80;;;;;;;17.91;38.62;100901.19;5123683;28;20095;-58
2022/04/01 07:59:35;;;;;;;1.00;0.90;;;;;;;17.91;38.55;100900.34;5123042;28;20492;-59
2022/04/01 08:02:01;;;;;;;1.25;1.00;;;;;;;17.93;38.35;100896.50;5136916;28;20423;-59
2022/04/01 08:04:27;;;;;;;1.02;1.00;;;;;;;17.94;38.46;100895.47;5139970;28;20027;-55
2022/04/01 08:06:53;;;;;;;1.77;1.00;;;;;;;17.98;38.56;100901.38;5141890;28;20027;-59
2022/04/01 08:09:18;;;;;;;0.98;0.80;;;;;;;17.97;38.57;100891.63;5141331;28;20031;-59
2022/04/01 08:11:43;;;;;;;1.13;0.90;;;;;;;18.03;38.61;100893.66;5142123;28;20043;-59
2022/04/01 08:14:09;;;;;;;2.45;1.00;;;;;;;18.02;38.42;100893.84;5141213;28;20023;-59
2022/04/01 08:16:34;;;;;;;1.63;0.95;;;;;;;18.06;38.29;100897.88;5142223;28;20023;-59
2022/04/01 08:18:59;;;;;;;1.92;0.85;;;;;;;18.10;38.52;100904.63;5139417;28;20031;-58
2022/04/01 08:21:25;;;;;;;2.92;1.10;;;;;;;18.13;38.39;100909.66;5141321;28;20035;-58
2022/04/01 08:23:51;;;;;;;1.85;0.90;;;;;;;18.14;38.20;100916.75;5140518;28;20042;-59
2022/04/01 08:26:16;;;;;;;0.80;0.80;;;;;;;18.18;38.37;100920.78;5135491;28;20135;-59
2022/04/01 08:28:41;;;;;;;2.08;0.90;;;;;;;18.19;38.11;100919.78;5139493;28;20024;-59
2022/04/01 08:31:08;;;;;;;0.95;0.88;;;;;;;18.22;38.13;100923.00;5141356;28;20087;-59
2022/04/01 08:33:33;;;;;;;1.58;0.80;;;;;;;18.27;38.16;100938.66;5141551;28;20039;-53
2022/04/01 08:35:59;;;;;;;2.72;1.10;;;;;;;18.30;38.10;100942.84;5141994;28;20039;-56
2022/04/01 08:38:24;;;;;;;1.05;0.88;;;;;;;18.30;37.93;100948.22;5142638;28;20027;-57
2022/04/01 08:40:50;;;;;;;1.10;1.02;;;;;;;18.32;37.81;100947.06;5140151;28;20084;-55
2022/04/01 08:43:26;;;;;;;0.80;0.80;;;;;;;18.36;37.90;100947.59;5145320;27;20497;-57
2022/04/01 08:45:52;;;;;;;1.55;1.00;;;;;;;18.37;37.87;100952.81;5138402;27;20016;-56
2022/04/01 08:48:17;;;;;;;1.60;1.13;;;;;;;18.38;37.79;100956.34;5126773;28;20027;-56
2022/04/01 08:50:43;;;;;;;0.90;0.80;;;;;;;18.39;38.23;100972.34;5126051;28;20084;-57
2022/04/01 08:53:08;;;;;;;0.60;0.60;;;;;;;18.40;37.75;100967.78;5108300;28;20036;-57
2022/04/01 08:55:33;;;;;;;1.30;0.73;;;;;;;18.43;37.85;100980.91;5126889;28;20023;-57
2022/04/01 08:57:59;;;;;;;0.73;0.73;;;;;;;18.42;37.59;100976.53;5127214;27;20087;-56
2022/04/01 09:00:24;;;;;;;1.42;0.80;;;;;;;18.44;37.85;100985.31;5146583;27;20062;-55
2022/04/01 09:03:08;;;;;;;2.95;0.77;;;;;;;18.49;37.76;100993.72;5136732;27;20026;-59
2022/04/01 09:05:33;;;;;;;2.15;1.00;;;;;;;18.49;37.69;101001.81;5142222;27;20038;-58
2022/04/01 09:08:07;;;;;;;0.98;0.90;;;;;;;18.51;37.69;100997.09;5143750;27;20023;-58
2022/04/01 09:11:08;;;;;;;1.20;0.70;;;;;;;18.53;37.53;101005.03;5144601;27;20019;-58
2022/04/01 09:13:43;;;;;;;1.35;1.02;;;;;;;18.53;37.85;101011.25;5140219;27;20043;-58
2022/04/01 09:16:10;;;;;;;1.88;0.85;;;;;;;18.54;37.91;101009.38;5141075;27;20071;-58
2022/04/01 09:18:46;;;;;;;1.67;0.68;;;;;;;18.58;37.59;101024.22;5144811;27;20043;-58
2022/04/01 09:21:12;;;;;;;0.60;0.60;;;;;;;18.57;37.58;101026.06;5144140;27;20027;-57
2022/04/01 09:23:39;;;;;;;1.33;0.80;;;;;;;18.59;37.79;101036.66;5144527;27;20031;-58
2022/04/01 09:26:05;;;;;;;2.13;0.82;;;;;;;18.60;38.08;101027.56;5144424;27;20020;-57
2022/04/01 09:28:37;;;;;;;1.02;0.85;;;;;;;18.61;37.65;101040.91;5144338;27;20051;-58
2022/04/01 09:31:10;;;;;;;1.98;0.82;;;;;;;18.63;37.39;101043.41;5143577;27;20026;-56
2022/04/01 09:33:50;;;;;;;1.20;0.77;;;;;;;18.63;37.24;101036.16;5143930;27;20038;-58
2022/04/01 09:36:22;;;;;;;0.85;0.80;;;;;;;18.66;37.63;101049.31;5143281;27;20127;-56
2022/04/01 09:39:15;;;;;;;1.08;0.80;;;;;;;18.68;37.53;101038.38;5135549;27;20019;-58
2022/04/01 09:41:43;;;;;;;1.38;0.77;;;;;;;18.67;37.42;101042.91;5138630;27;20039;-58
2022/04/01 09:44:21;;;;;;;1.35;0.88;;;;;;;18.69;37.48;101040.94;5145758;27;20027;-57
2022/04/01 09:46:49;;;;;;;0.90;0.73;;;;;;;18.72;37.37;101037.06;5145995;27;20026;-57
2022/04/01 09:49:27;;;;;;;0.63;0.63;;;;;;;18.75;37.43;101044.00;5145099;27;20080;-58
2022/04/01 09:51:53;;;;;;;1.27;0.90;;;;;;;18.72;37.30;101037.91;5145654;27;20019;-58
2022/04/01 09:54:18;;;;;;;1.33;0.70;;;;;;;18.75;37.42;101036.75;5145322;27;20030;-58
2022/04/01 09:56:45;;;;;;;2.20;0.80;;;;;;;18.77;37.15;101045.50;5145187;27;20493;-57
2022/04/01 09:59:12;;;;;;;1.00;0.90;;;;;;;18.78;37.29;101044.50;5106391;28;20028;-58
2022/04/01 10:01:38;;;;;;;1.23;1.05;;;;;;;18.79;37.04;101051.56;5124867;28;20020;-57
2022/04/01 10:04:04;;;;;;;1.00;0.90;;;;;;;18.81;36.96;101051.41;5136620;27;20034;-57
2022/04/01 10:06:31;;;;;;;1.25;0.70;;;;;;;18.83;37.17;101054.78;5136935;27;20053;-58
2022/04/01 10:09:00;;;;;;;1.00;0.60;;;;;;;18.84;36.90;101041.16;5126918;27;20046;-58
2022/04/01 10:11:27;;;;;;;1.75;1.00;;;;;;;18.84;36.84;101046.53;5127290;27;20076;-57
2022/04/01 10:13:53;;;;;;;0.73;0.70;;;;;;;18.86;36.94;101052.63;5145786;27;20034;-57
2022/04/01 10:16:20;;;;;;;2.78;0.90;;;;;;;18.87;36.96;101043.53;5145365;27;20034;-57
2022/04/01 10:18:47;;;;;;;0.80;0.80;;;;;;;18.87;36.83;101040.81;5145139;27;20038;-57
2022/04/01 10:21:14;;;;;;;1.48;0.90;;;;;;;18.89;36.71;101038.78;5145688;27;20027;-58
2022/04/01 10:23:44;;;;;;;1.42;1.27;;;;;;;18.93;36.84;101050.94;5145306;27;20031;-57
2022/04/01 10:26:13;;;;;;;1.15;0.82;;;;;;;18.94;36.57;101049.91;5127460;27;20047;-57
2022/04/01 10:28:39;;;;;;;3.25;1.65;;;;;;;18.94;36.54;101055.28;5127111;27;20029;-57
2022/04/01 10:31:04;;;;;;;1.25;1.13;;;;;;;18.94;36.51;101054.47;5145319;27;20023;-57
2022/04/01 10:33:35;;;;;;;0.88;0.75;;;;;;;18.95;36.60;101051.63;5145430;27;20039;-57
2022/04/01 10:36:13;;;;;;;1.13;0.93;;;;;;;18.99;36.35;101060.22;5144544;27;20057;-59
2022/04/01 10:38:39;;;;;;;3.25;1.15;;;;;;;18.94;36.46;101052.59;5126357;27;20019;-58
2022/04/01 10:41:11;;;;;;;0.98;0.80;;;;;;;18.95;36.53;101053.47;5145124;27;20063;-58
2022/04/01 10:43:44;;;;;;;1.45;0.90;;;;;;;19.03;36.55;101061.56;5145015;27;20043;-58
2022/04/01 10:46:14;;;;;;;1.77;1.17;;;;;;;19.05;36.71;101061.41;5135156;27;20015;-57
2022/04/01 10:52:04;;;;;;;1.05;0.90;;;;;;;19.04;36.21;101062.41;5145287;27;20022;-58
2022/04/01 10:54:29;;;;;;;0.73;0.70;;;;;;;19.06;36.36;101063.06;5144650;27;20027;-58
2022/04/01 10:57:06;;;;;;;0.93;0.80;;;;;;;19.09;36.38;101060.06;5144584;27;20026;-58
2022/04/01 10:59:45;;;;;;;1.05;0.90;;;;;;;19.08;36.41;101066.47;5144990;27;20052;-58
2022/04/01 11:02:15;;;;;;;2.92;1.10;;;;;;;19.09;36.38;101076.22;5153714;27;20023;-57
2022/04/01 11:04:42;;;;;;;2.05;0.90;;;;;;;19.10;36.19;101059.88;5139875;27;20506;-57
2022/04/01 11:07:14;;;;;;;1.30;0.88;;;;;;;19.12;36.39;101067.81;5140466;27;20026;-57
2022/04/01 11:09:50;;;;;;;1.25;0.80;;;;;;;19.15;36.00;101070.16;5144050;27;20027;-58
2022/04/01 11:12:19;;;;;;;0.98;0.90;;;;;;;19.13;36.26;101067.66;5142511;27;20515;-58
2022/04/01 11:14:53;;;;;;;1.02;0.90;;;;;;;19.13;36.29;101067.66;5144298;27;20030;-58
2022/04/01 11:17:19;;;;;;;1.23;0.90;;;;;;;19.15;36.21;101078.25;5144520;27;20027;-58
2022/04/01 11:20:21;;;;;;;1.38;1.00;;;;;;;19.17;36.02;101078.94;5143151;27;20050;-58
2022/04/01 11:22:52;;;;;;;1.30;0.95;;;;;;;19.17;35.91;101071.69;5060353;28;20033;-55
2022/04/01 11:25:23;;;;;;;1.17;1.00;;;;;;;19.18;35.98;101081.47;5080691;28;20028;-57
2022/04/01 11:27:57;;;;;;;0.88;0.88;;;;;;;19.18;36.40;101078.75;5060693;28;20029;-58
2022/04/01 11:30:30;;;;;;;2.70;1.08;;;;;;;19.18;36.27;101088.72;5059915;28;20057;-58
2022/04/01 11:32:56;;;;;;;1.10;1.00;;;;;;;19.18;36.37;101084.16;5060368;28;20032;-56
2022/04/01 11:35:24;;;;;;;0.88;0.85;;;;;;;19.20;36.14;101089.41;5059391;28;20136;-53
2022/04/01 11:37:49;;;;;;;1.00;0.90;;;;;;;19.18;36.23;101088.72;5059860;28;20036;-57
2022/04/01 11:40:17;;;;;;;1.65;1.13;;;;;;;19.20;36.39;101095.63;5059975;28;20103;-57